Atlanta, Georgia
Current Conditions -  °F | °C
As of 1:52 AM on Saturday 29 Nov 2014 (Local Time) from KATL Reporting Station
Few Clouds Few Clouds  
Wind Chill: 36°   Ceiling: Unl
Heat Index: 36°   Visibility: 10mi
Dew Point: 21°   Wind: 0mph
Humidity: 55%   Direction: NA
Pressure: 30.26"   Gusts: NA
Location:  33.75°N, 84.39°W
Report Text: KATL 290652Z 00000KT 10SM FEW250 02/M06 A3026 RMK AO2 SLP251 T00221061
Loading
Personal Weather Stations






























Interactive Weather Map New forecast layout! Learn more

10-Day Weather Forecast

Advertisements
Track Severe Weather on mobile